Time;durP1;ratioP1;P1;durP2;ratioP2;P2;SDS_P1;SDS_P2;PMS_P1;PMS_P2;Temp;Humidity;BMP_temperature;BMP_pressure;BME280_temperature;BME280_humidity;BME280_pressure;Samples;Min_cycle;Max_cycle;Signal;HPM_P1;HPM_P2
2021/12/16 00:04:11;;;;;;;10.07;6.60;;;;;;;10.86;67.20;102946.56;4946518;28;96881;-87
2021/12/16 00:09:22;;;;;;;8.60;5.90;;;;;;;10.86;66.93;102935.56;4930745;28;101064;-87
2021/12/16 00:33:19;;;;;;;12.63;7.30;;;;;;;10.92;67.20;102926.31;4943575;28;97404;-88
2021/12/16 00:35:50;;;;;;;10.47;7.67;;;;;;;10.94;67.23;102917.63;4958189;28;97230;-88
2021/12/16 00:38:16;;;;;;;14.73;8.57;;;;;;;10.99;67.17;102941.84;4944818;28;96851;-85
2021/12/16 00:40:43;;;;;;;13.80;7.87;;;;;;;11.05;67.00;102934.59;4942976;28;98674;-87
2021/12/16 00:43:27;;;;;;;11.60;6.87;;;;;;;11.07;67.14;102932.19;4944379;28;98202;-87
2021/12/16 00:46:14;;;;;;;12.60;7.40;;;;;;;11.08;67.01;102936.47;4943064;28;97988;-88
2021/12/16 00:54:09;;;;;;;18.10;7.83;;;;;;;11.06;67.07;102930.63;4944820;28;99973;-87
2021/12/16 00:56:36;;;;;;;12.50;7.53;;;;;;;11.08;67.05;102926.22;4943472;28;97280;-87
2021/12/16 00:59:04;;;;;;;14.80;8.60;;;;;;;11.03;66.93;102929.53;4961189;28;100838;-87
2021/12/16 01:34:15;;;;;;;13.07;9.03;;;;;;;11.09;67.21;102938.03;4942947;28;100359;-87
2021/12/16 01:42:24;;;;;;;18.07;10.83;;;;;;;11.06;67.19;102945.19;4949649;28;96985;-87
2021/12/16 01:55:15;;;;;;;21.97;11.90;;;;;;;11.07;67.45;102932.94;4948896;28;96889;-87
2021/12/16 01:57:52;;;;;;;25.73;11.80;;;;;;;11.05;67.29;102949.13;4948080;28;98333;-87
2021/12/16 02:00:29;;;;;;;20.97;11.20;;;;;;;11.08;67.50;102944.72;4945766;28;97924;-87
2021/12/16 02:03:04;;;;;;;23.60;12.27;;;;;;;11.06;67.29;102936.91;4943120;28;97287;-87
2021/12/16 02:08:32;;;;;;;19.40;11.63;;;;;;;11.08;67.34;102940.00;4924512;28;100570;-87
2021/12/16 02:11:37;;;;;;;26.80;12.80;;;;;;;11.11;67.32;102947.41;4945391;28;97055;-87
2021/12/16 02:33:22;;;;;;;27.30;15.23;;;;;;;11.19;67.51;102967.22;4942979;28;96982;-86
2021/12/16 02:36:13;;;;;;;33.77;15.00;;;;;;;11.23;67.50;102951.34;4944249;28;97347;-87
2021/12/16 02:38:42;;;;;;;28.13;14.17;;;;;;;11.23;67.51;102965.13;4964407;28;103794;-87
2021/12/16 02:41:08;;;;;;;33.53;15.77;;;;;;;11.26;67.41;102967.00;4944962;28;97352;-86
2021/12/16 02:48:39;;;;;;;31.30;14.57;;;;;;;11.32;67.59;102968.00;4944423;28;100363;-87
2021/12/16 02:51:16;;;;;;;26.50;15.30;;;;;;;11.32;67.69;102959.72;4946766;28;101575;-86
2021/12/16 02:53:53;;;;;;;27.70;15.30;;;;;;;11.30;67.58;102962.16;4942116;28;98254;-89
2021/12/16 02:56:19;;;;;;;31.83;16.73;;;;;;;11.35;67.68;102969.88;4946339;28;97000;-89
2021/12/16 02:58:48;;;;;;;28.47;15.70;;;;;;;11.38;67.68;102982.00;4947281;28;97582;-88
2021/12/16 03:01:46;;;;;;;28.80;15.80;;;;;;;11.39;67.88;102962.28;4943116;28;98406;-88
2021/12/16 03:04:14;;;;;;;29.77;15.63;;;;;;;11.42;67.83;102974.41;4935176;28;98233;-87
2021/12/16 03:06:43;;;;;;;25.20;14.20;;;;;;;11.46;67.75;102977.81;4942906;28;96957;-88
2021/12/16 03:09:12;;;;;;;27.67;15.40;;;;;;;11.48;67.63;102967.13;4945038;28;97227;-87
2021/12/16 03:11:49;;;;;;;31.20;15.90;;;;;;;11.49;67.69;102960.41;4945994;28;97645;-87
2021/12/16 03:22:02;;;;;;;27.20;15.30;;;;;;;11.59;67.79;102987.63;4943200;28;100078;-87
2021/12/16 03:25:04;;;;;;;31.37;16.97;;;;;;;11.59;67.60;102975.81;4943360;28;97256;-88
2021/12/16 03:35:14;;;;;;;29.80;15.93;;;;;;;11.64;67.71;103000.84;4945822;28;96696;-87
2021/12/16 03:37:40;;;;;;;29.23;15.87;;;;;;;11.64;67.84;102995.31;4944649;28;97010;-87
2021/12/16 03:40:13;;;;;;;31.03;16.20;;;;;;;11.68;67.80;102987.00;4944863;28;97892;-87
2021/12/16 03:42:42;;;;;;;31.40;16.83;;;;;;;11.70;67.72;103001.88;4942865;28;98237;-87
2021/12/16 03:48:14;;;;;;;27.03;15.57;;;;;;;11.75;67.78;102997.78;4943756;28;96928;-87
2021/12/16 03:50:40;;;;;;;25.20;15.70;;;;;;;11.74;67.76;103002.53;4957968;28;98978;-87
2021/12/16 03:53:06;;;;;;;31.50;16.30;;;;;;;11.78;67.66;103002.41;4947249;28;97953;-88
2021/12/16 03:55:33;;;;;;;29.10;16.93;;;;;;;11.80;67.66;102994.47;4942896;28;96996;-86
2021/12/16 03:57:58;;;;;;;27.90;16.57;;;;;;;11.79;67.59;102987.41;4945807;28;97763;-88
2021/12/16 04:00:28;;;;;;;30.73;17.10;;;;;;;11.81;67.74;102996.00;4944183;28;97255;-87
2021/12/16 04:02:54;;;;;;;28.23;16.27;;;;;;;11.82;67.80;102992.81;4944009;28;99582;-88
2021/12/16 04:05:21;;;;;;;28.80;16.43;;;;;;;11.81;67.84;103004.28;4943869;28;96914;-87
2021/12/16 04:07:47;;;;;;;31.00;17.07;;;;;;;11.85;67.86;102996.66;4943596;28;97065;-87
2021/12/16 04:10:26;;;;;;;28.77;16.83;;;;;;;11.86;67.96;102998.97;4944402;28;97803;-87
2021/12/16 04:12:52;;;;;;;34.63;16.60;;;;;;;11.86;67.76;102998.22;4942543;28;100342;-88
2021/12/16 04:15:17;;;;;;;30.97;17.30;;;;;;;11.84;67.70;103020.72;4942739;28;97381;-88
2021/12/16 04:17:43;;;;;;;28.97;16.57;;;;;;;11.85;67.75;102997.44;4943086;28;96724;-87
2021/12/16 04:20:13;;;;;;;31.80;15.50;;;;;;;11.86;67.79;103012.75;4944915;28;96983;-88
2021/12/16 04:22:43;;;;;;;30.00;15.67;;;;;;;11.86;67.77;102998.97;4943401;28;96898;-88
2021/12/16 04:25:13;;;;;;;26.50;15.40;;;;;;;11.86;67.78;103010.00;4941207;28;96620;-87
2021/12/16 04:27:41;;;;;;;33.30;17.60;;;;;;;11.87;67.67;103008.81;4944244;28;96796;-88
2021/12/16 04:30:09;;;;;;;35.60;16.77;;;;;;;11.89;67.80;103003.63;4940528;28;98871;-87
2021/12/16 04:32:35;;;;;;;35.10;17.83;;;;;;;11.92;67.94;103010.22;4962448;28;98531;-87
2021/12/16 04:35:01;;;;;;;34.50;18.03;;;;;;;11.95;67.69;103012.88;4958448;28;97348;-88
2021/12/16 04:37:26;;;;;;;37.20;17.20;;;;;;;11.96;67.72;103019.94;4940665;28;96873;-86
2021/12/16 04:39:52;;;;;;;30.63;17.47;;;;;;;11.97;67.66;103021.47;4939097;28;100309;-89
2021/12/16 04:42:20;;;;;;;27.80;16.57;;;;;;;11.96;67.75;103033.72;4955951;28;97430;-87
2021/12/16 04:44:46;;;;;;;32.27;17.10;;;;;;;11.98;67.71;103019.47;4943041;28;96984;-87
2021/12/16 04:47:13;;;;;;;39.07;18.13;;;;;;;11.98;67.90;103039.56;4946801;28;98492;-87
2021/12/16 04:49:38;;;;;;;35.23;18.67;;;;;;;11.98;67.66;103031.31;4943561;28;97724;-87
2021/12/16 04:52:10;;;;;;;38.37;17.83;;;;;;;11.98;67.75;103025.78;4944262;28;97690;-88
2021/12/16 04:54:36;;;;;;;33.13;17.53;;;;;;;11.98;67.92;103038.81;4939101;28;96894;-87
2021/12/16 04:57:02;;;;;;;30.80;17.00;;;;;;;11.98;67.88;103039.56;4943002;28;97613;-87
2021/12/16 04:59:30;;;;;;;37.30;17.63;;;;;;;12.00;67.86;103033.59;4944635;28;98886;-87
2021/12/16 05:02:10;;;;;;;32.97;17.83;;;;;;;11.99;67.92;103041.09;4941481;28;102118;-88
2021/12/16 05:04:36;;;;;;;28.30;17.10;;;;;;;11.99;67.93;103048.63;4942016;28;98323;-88
2021/12/16 05:07:03;;;;;;;31.63;16.53;;;;;;;11.98;67.89;103036.03;4938179;28;97056;-87
2021/12/16 05:12:08;;;;;;;33.00;17.67;;;;;;;11.98;67.99;103045.09;4944645;28;101413;-87
2021/12/16 05:14:34;;;;;;;34.50;17.70;;;;;;;11.99;67.95;103043.88;4944188;28;97275;-87
2021/12/16 05:17:00;;;;;;;32.43;18.00;;;;;;;11.93;67.85;103031.84;4940850;28;97223;-87
2021/12/16 05:19:26;;;;;;;45.20;18.50;;;;;;;12.04;68.02;103050.81;4943820;28;97567;-88
2021/12/16 05:21:58;;;;;;;38.20;19.30;;;;;;;11.99;67.85;103041.09;4942229;28;98046;-87
2021/12/16 05:24:26;;;;;;;38.40;19.03;;;;;;;12.01;68.07;103035.91;4958766;28;96845;-88
2021/12/16 05:26:58;;;;;;;37.20;18.33;;;;;;;12.04;67.91;103048.06;4963175;28;97111;-87
2021/12/16 05:29:24;;;;;;;31.90;17.87;;;;;;;12.03;68.16;103052.03;4941471;28;102907;-88
2021/12/16 05:31:51;;;;;;;36.80;18.73;;;;;;;12.04;67.91;103083.94;4942875;28;97184;-87
2021/12/16 05:34:17;;;;;;;33.23;19.20;;;;;;;12.03;67.89;103052.78;4941331;28;96870;-87
2021/12/16 05:36:44;;;;;;;36.27;18.70;;;;;;;12.07;67.95;103062.97;4942347;28;96605;-87
2021/12/16 05:39:14;;;;;;;33.07;17.73;;;;;;;12.03;67.96;103072.09;4941452;28;96991;-89
2021/12/16 05:41:39;;;;;;;38.63;19.17;;;;;;;12.04;67.97;103061.84;4937444;28;97747;-86
2021/12/16 05:44:05;;;;;;;37.93;19.50;;;;;;;12.02;68.05;103062.31;4940421;28;97360;-86
2021/12/16 05:46:31;;;;;;;37.57;19.50;;;;;;;12.08;67.99;103070.78;4945160;28;97022;-87
2021/12/16 05:48:58;;;;;;;35.37;18.07;;;;;;;12.10;67.85;103075.88;4939052;28;96915;-86
2021/12/16 05:51:29;;;;;;;33.43;17.77;;;;;;;12.11;67.99;103103.03;4945109;28;97164;-86
2021/12/16 05:53:56;;;;;;;37.20;19.20;;;;;;;12.12;67.92;103092.75;4939636;28;97351;-85
2021/12/16 05:56:22;;;;;;;28.97;15.53;;;;;;;12.12;67.86;103092.75;4941212;28;97083;-87
2021/12/16 05:58:48;;;;;;;34.13;18.30;;;;;;;12.08;67.88;103089.34;4945600;28;98825;-86
2021/12/16 06:01:19;;;;;;;39.50;19.80;;;;;;;12.13;67.88;103102.56;4940849;28;98463;-87
2021/12/16 06:03:46;;;;;;;33.17;17.90;;;;;;;12.14;67.97;103095.84;4942382;28;96601;-87
2021/12/16 06:06:12;;;;;;;38.53;18.20;;;;;;;12.11;67.94;103118.78;4962364;28;96675;-85
2021/12/16 06:08:39;;;;;;;34.27;18.70;;;;;;;12.14;67.90;103107.66;4944840;28;97977;-86
2021/12/16 06:13:36;;;;;;;41.97;19.20;;;;;;;12.14;67.99;103112.41;4945008;28;96930;-86
2021/12/16 06:27:14;;;;;;;35.63;18.63;;;;;;;12.08;68.04;103117.69;4934683;28;96994;-87
2021/12/16 06:29:47;;;;;;;31.77;18.30;;;;;;;12.10;67.99;103122.78;4943189;28;96984;-86
2021/12/16 06:32:12;;;;;;;38.13;18.63;;;;;;;12.06;67.87;103116.63;4946208;28;97343;-87
2021/12/16 06:34:39;;;;;;;40.47;19.97;;;;;;;12.07;68.01;103118.16;4941395;28;96996;-86
2021/12/16 06:37:05;;;;;;;32.87;18.97;;;;;;;12.09;67.94;103121.22;4942555;28;97029;-86
2021/12/16 06:39:31;;;;;;;33.37;18.70;;;;;;;12.11;68.25;103146.41;4944768;28;97725;-87
2021/12/16 06:41:58;;;;;;;36.87;19.93;;;;;;;12.10;67.99;103129.06;4943389;28;96806;-87
2021/12/16 06:44:29;;;;;;;38.53;19.30;;;;;;;12.11;67.95;103147.19;4943021;28;99168;-85
2021/12/16 06:47:01;;;;;;;43.03;20.30;;;;;;;12.14;68.10;103142.75;4942767;28;97013;-86
2021/12/16 06:49:28;;;;;;;35.67;19.53;;;;;;;12.14;68.10;103138.03;4959123;28;97040;-87
2021/12/16 06:51:59;;;;;;;38.07;18.60;;;;;;;12.14;68.08;103173.13;4945905;28;97369;-86
2021/12/16 06:54:41;;;;;;;35.70;20.10;;;;;;;12.15;68.11;103161.63;4944260;28;96997;-86
2021/12/16 06:59:52;;;;;;;39.07;17.80;;;;;;;12.17;68.01;103156.44;4946536;28;100490;-87
2021/12/16 07:02:36;;;;;;;32.30;17.90;;;;;;;12.20;67.91;103163.06;4961086;28;102863;-85
2021/12/16 07:05:03;;;;;;;36.33;18.60;;;;;;;12.18;67.99;103187.56;4958551;28;97292;-86
2021/12/16 07:07:28;;;;;;;36.27;18.10;;;;;;;12.20;68.03;103171.34;4944077;28;97003;-86
2021/12/16 07:09:54;;;;;;;39.13;20.60;;;;;;;12.21;67.86;103159.84;4946263;28;96931;-86
2021/12/16 07:12:25;;;;;;;37.07;19.07;;;;;;;12.21;67.92;103161.88;4949263;28;97370;-87
2021/12/16 07:14:51;;;;;;;38.10;18.93;;;;;;;12.19;68.09;103183.63;4948362;28;97200;-86
2021/12/16 07:17:17;;;;;;;38.67;20.50;;;;;;;12.20;68.14;103165.81;4948576;28;96739;-86
2021/12/16 07:19:45;;;;;;;33.90;18.20;;;;;;;12.18;67.92;103182.06;4947931;28;98476;-86
2021/12/16 07:22:12;;;;;;;39.53;20.07;;;;;;;12.20;67.93;103180.41;4947595;28;98865;-86
2021/12/16 07:24:38;;;;;;;39.23;19.80;;;;;;;12.20;67.93;103193.44;4944884;28;97269;-87
2021/12/16 07:27:05;;;;;;;33.03;17.70;;;;;;;12.20;68.04;103205.25;4947619;28;96863;-86
2021/12/16 07:29:31;;;;;;;36.90;19.60;;;;;;;12.21;68.00;103192.97;4944328;28;98623;-86
2021/12/16 07:31:59;;;;;;;34.23;18.10;;;;;;;12.21;68.02;103220.56;4943197;28;97929;-86
2021/12/16 07:34:25;;;;;;;37.40;19.60;;;;;;;12.25;68.00;103209.44;4945937;28;96814;-86
2021/12/16 07:36:52;;;;;;;32.07;17.57;;;;;;;12.25;68.01;103217.72;4943603;28;97370;-86
2021/12/16 07:39:19;;;;;;;41.83;20.00;;;;;;;12.23;67.80;103215.38;4940329;28;100139;-87
2021/12/16 07:41:51;;;;;;;40.50;19.10;;;;;;;12.22;68.20;103218.59;4963473;28;98432;-86
2021/12/16 07:44:16;;;;;;;40.03;19.47;;;;;;;12.22;68.03;103222.13;4945478;28;98287;-85
2021/12/16 07:46:58;;;;;;;36.20;18.50;;;;;;;12.25;68.14;103210.22;4939983;28;96583;-86
2021/12/16 07:49:30;;;;;;;44.40;21.97;;;;;;;12.22;67.98;103218.59;4944074;28;100652;-86
2021/12/16 07:51:57;;;;;;;35.80;18.70;;;;;;;12.26;67.91;103213.72;4939988;28;102241;-86
2021/12/16 07:54:23;;;;;;;38.30;19.20;;;;;;;12.28;68.08;103216.81;4943906;28;96794;-86
2021/12/16 07:56:51;;;;;;;41.13;21.10;;;;;;;12.27;67.89;103238.16;4962460;28;96874;-86
2021/12/16 07:59:16;;;;;;;44.23;18.73;;;;;;;12.29;68.10;103224.69;4942478;28;97650;-86
2021/12/16 08:01:43;;;;;;;39.40;19.43;;;;;;;12.29;67.89;103226.66;4942855;28;99002;-86
2021/12/16 08:04:17;;;;;;;40.23;19.17;;;;;;;12.32;68.01;103240.34;4944992;28;97145;-86
2021/12/16 08:06:44;;;;;;;32.87;18.10;;;;;;;12.33;68.08;103235.59;4942015;28;97058;-86
2021/12/16 08:09:10;;;;;;;35.07;18.77;;;;;;;12.33;68.04;103244.66;4943408;28;99056;-86
2021/12/16 08:11:38;;;;;;;36.00;19.93;;;;;;;12.35;67.80;103238.69;4944719;28;98388;-86
2021/12/16 08:14:04;;;;;;;32.03;17.73;;;;;;;12.35;68.14;103250.53;4943301;28;97042;-86
2021/12/16 08:16:32;;;;;;;39.87;18.27;;;;;;;12.38;67.94;103248.88;4942708;28;96821;-86
2021/12/16 08:18:58;;;;;;;37.40;18.57;;;;;;;12.36;67.85;103295.47;4939399;28;97496;-87
2021/12/16 08:21:28;;;;;;;40.50;19.27;;;;;;;12.35;67.96;103266.31;4940436;28;97966;-87
2021/12/16 08:23:55;;;;;;;38.13;19.37;;;;;;;12.35;68.31;103260.78;4945298;28;98392;-86
2021/12/16 08:26:20;;;;;;;37.90;18.90;;;;;;;12.35;68.04;103249.75;4943936;28;96899;-86
2021/12/16 08:28:47;;;;;;;36.07;19.30;;;;;;;12.35;68.08;103250.53;4943706;28;96812;-86
2021/12/16 08:31:13;;;;;;;31.90;16.73;;;;;;;12.36;68.08;103262.34;4943698;28;96971;-85
2021/12/16 08:33:39;;;;;;;33.50;19.30;;;;;;;12.39;68.08;103266.97;4957611;28;96737;-86
2021/12/16 08:36:06;;;;;;;39.17;19.37;;;;;;;12.36;68.19;103281.66;4945522;28;96965;-86
2021/12/16 08:38:33;;;;;;;36.83;18.63;;;;;;;12.39;68.29;103267.75;4945013;28;103387;-87
2021/12/16 08:41:05;;;;;;;47.70;18.00;;;;;;;12.40;68.11;103285.09;4959346;28;97967;-89
2021/12/16 08:43:31;;;;;;;35.53;17.47;;;;;;;12.40;68.25;103285.09;4943320;28;96968;-87
2021/12/16 08:45:57;;;;;;;34.83;18.60;;;;;;;12.41;68.13;103279.13;4945133;28;97028;-86
2021/12/16 08:48:23;;;;;;;33.97;18.37;;;;;;;12.42;68.29;103288.97;4943845;28;97551;-89
2021/12/16 08:50:50;;;;;;;39.17;18.20;;;;;;;12.44;68.37;103277.47;4946159;28;98415;-88
2021/12/16 08:53:19;;;;;;;33.80;18.80;;;;;;;12.43;68.12;103278.66;4940811;28;98853;-87
2021/12/16 08:55:45;;;;;;;33.33;17.07;;;;;;;12.45;68.19;103279.03;4958449;28;97379;-88
2021/12/16 08:58:11;;;;;;;36.53;18.97;;;;;;;12.43;68.40;103287.72;4961061;28;97271;-87
2021/12/16 09:00:50;;;;;;;32.80;17.80;;;;;;;12.45;68.38;103288.06;4942952;28;98669;-87
2021/12/16 09:03:15;;;;;;;41.50;17.43;;;;;;;12.45;68.52;103314.94;4961304;28;97085;-86
2021/12/16 09:05:41;;;;;;;39.67;17.90;;;;;;;12.46;68.32;103316.47;4944079;28;97351;-87
2021/12/16 09:08:07;;;;;;;34.83;17.10;;;;;;;12.47;68.35;103309.72;4940158;28;97387;-87
2021/12/16 09:10:36;;;;;;;37.57;16.03;;;;;;;12.49;68.16;103310.06;4963145;28;99896;-87
2021/12/16 09:13:09;;;;;;;35.27;16.90;;;;;;;12.52;68.36;103309.94;4948342;28;96665;-87
2021/12/16 09:15:57;;;;;;;37.07;17.70;;;;;;;12.54;68.33;103310.28;4942517;28;98974;-87
2021/12/16 09:18:26;;;;;;;35.00;16.07;;;;;;;12.57;68.22;103314.16;4948662;28;102915;-87
2021/12/16 09:20:52;;;;;;;30.70;15.57;;;;;;;12.57;68.13;103317.69;4940626;28;99662;-87
2021/12/16 09:23:18;;;;;;;29.03;16.17;;;;;;;12.56;68.34;103327.19;4944291;28;97206;-86
2021/12/16 09:25:46;;;;;;;30.97;15.57;;;;;;;12.56;68.29;103326.41;4943065;28;97195;-86
2021/12/16 09:28:14;;;;;;;33.97;17.00;;;;;;;12.60;68.35;103325.06;4944359;28;98524;-85
2021/12/16 09:30:40;;;;;;;28.20;15.00;;;;;;;12.65;68.17;103329.28;4938908;28;99411;-86
2021/12/16 09:33:13;;;;;;;28.27;15.30;;;;;;;12.64;68.40;103330.50;4944881;28;97229;-86
2021/12/16 09:35:39;;;;;;;31.90;15.10;;;;;;;12.66;68.43;103334.38;4945292;28;97103;-86
2021/12/16 09:38:09;;;;;;;30.13;15.97;;;;;;;12.68;68.21;103340.25;4940405;28;98082;-87
2021/12/16 09:40:38;;;;;;;30.30;16.33;;;;;;;12.71;68.51;103341.34;4948570;28;97576;-85
2021/12/16 09:43:04;;;;;;;35.97;17.23;;;;;;;12.73;68.38;103342.44;4943955;28;96851;-86
2021/12/16 09:45:30;;;;;;;30.53;15.80;;;;;;;12.76;68.39;103338.78;4945761;28;97424;-86
2021/12/16 09:47:56;;;;;;;32.40;15.73;;;;;;;12.75;68.23;103339.25;4943231;28;99822;-86
2021/12/16 09:50:26;;;;;;;29.37;15.90;;;;;;;12.78;68.35;103343.88;4947605;28;96838;-87
2021/12/16 09:52:52;;;;;;;26.27;14.17;;;;;;;12.80;68.29;103335.91;4949088;28;96946;-86
2021/12/16 09:55:18;;;;;;;30.40;14.50;;;;;;;12.80;68.47;103346.97;4943880;28;96957;-86
2021/12/16 09:57:44;;;;;;;25.53;14.40;;;;;;;12.82;68.28;103343.78;4946949;28;99459;-86
2021/12/16 10:00:12;;;;;;;33.50;14.30;;;;;;;12.85;68.26;103337.34;4944243;28;98917;-86
2021/12/16 10:02:38;;;;;;;29.80;14.87;;;;;;;12.85;68.44;103353.94;4948437;28;97210;-86
2021/12/16 10:05:06;;;;;;;29.53;14.63;;;;;;;12.83;68.26;103348.84;4949383;28;97143;-86
2021/12/16 10:07:34;;;;;;;26.83;14.40;;;;;;;12.85;68.37;103342.88;4947780;28;98036;-86
2021/12/16 10:10:03;;;;;;;29.90;14.13;;;;;;;12.88;68.23;103342.78;4948743;28;97754;-87
2021/12/16 10:12:34;;;;;;;30.60;13.77;;;;;;;12.94;68.36;103351.28;4946767;28;96740;-86
2021/12/16 10:15:05;;;;;;;28.00;14.73;;;;;;;12.93;68.32;103352.50;4946767;28;97623;-86
2021/12/16 10:17:35;;;;;;;24.60;13.70;;;;;;;12.97;68.44;103337.34;4942669;28;100792;-86
2021/12/16 10:20:17;;;;;;;26.27;14.63;;;;;;;12.99;68.38;103328.63;4942222;28;103927;-86
2021/12/16 10:22:46;;;;;;;29.70;12.70;;;;;;;13.01;68.42;103326.97;4945904;28;96966;-87
2021/12/16 10:25:32;;;;;;;26.27;13.20;;;;;;;13.05;68.45;103333.16;4958705;28;97216;-88
2021/12/16 10:28:14;;;;;;;22.47;12.60;;;;;;;13.06;68.22;103323.66;4942973;28;97026;-89
2021/12/16 10:31:02;;;;;;;27.83;13.60;;;;;;;13.05;68.57;103335.16;4938578;28;97049;-87
2021/12/16 10:33:30;;;;;;;27.40;13.50;;;;;;;13.07;68.44;103329.94;4947686;28;98517;-87
2021/12/16 10:36:01;;;;;;;27.93;13.10;;;;;;;13.10;68.37;103323.53;4946818;28;96880;-86
2021/12/16 10:38:26;;;;;;;33.23;13.70;;;;;;;13.12;68.28;103340.47;4961164;28;96854;-87
2021/12/16 10:40:56;;;;;;;24.93;12.80;;;;;;;13.13;68.22;103326.19;4944436;28;98493;-87
2021/12/16 10:43:41;;;;;;;23.67;13.30;;;;;;;13.15;68.37;103320.97;4949581;28;98855;-87
2021/12/16 10:46:20;;;;;;;33.00;13.40;;;;;;;13.14;68.23;103333.28;4945026;28;97451;-87
2021/12/16 10:48:50;;;;;;;20.37;12.63;;;;;;;13.19;68.38;103327.16;4944249;28;98338;-88
2021/12/16 10:51:38;;;;;;;24.83;13.67;;;;;;;13.21;68.24;103335.81;4942039;28;96645;-88
2021/12/16 10:54:39;;;;;;;28.27;13.80;;;;;;;13.25;68.46;103344.75;4960970;28;98925;-86
2021/12/16 10:57:22;;;;;;;25.07;11.97;;;;;;;13.27;68.13;103361.66;4934075;28;97190;-87
2021/12/16 10:59:51;;;;;;;29.77;12.83;;;;;;;13.21;68.11;103354.38;4940146;28;104960;-86
2021/12/16 11:02:19;;;;;;;22.53;12.77;;;;;;;13.22;68.21;103365.00;4945952;28;97389;-86
2021/12/16 11:05:12;;;;;;;25.97;12.80;;;;;;;13.25;68.20;103361.34;4944788;28;97359;-86
2021/12/16 11:07:39;;;;;;;20.90;11.53;;;;;;;13.27;68.33;103366.44;4945892;28;97310;-86
2021/12/16 11:10:15;;;;;;;30.93;13.07;;;;;;;13.29;68.14;103362.00;4945949;28;98797;-86
2021/12/16 11:12:50;;;;;;;25.13;12.43;;;;;;;13.31;68.27;103376.16;4950430;28;97355;-86
2021/12/16 11:15:22;;;;;;;19.13;11.20;;;;;;;13.31;68.14;103378.91;4944793;28;97249;-86
2021/12/16 11:18:03;;;;;;;14.40;10.20;;;;;;;13.31;68.05;103375.38;4950274;28;96900;-86
2021/12/16 11:20:49;;;;;;;18.73;10.43;;;;;;;13.28;67.99;103379.78;4943931;28;102975;-85
2021/12/16 11:23:20;;;;;;;20.27;10.10;;;;;;;13.27;67.97;103383.78;4946515;28;101857;-86
2021/12/16 11:25:53;;;;;;;16.20;10.07;;;;;;;13.25;68.11;103383.47;4944463;28;97126;-86
2021/12/16 11:28:21;;;;;;;15.57;8.93;;;;;;;13.23;67.92;103394.19;4941985;28;97056;-85
2021/12/16 11:30:46;;;;;;;20.67;10.47;;;;;;;13.22;68.23;103381.56;4947503;28;98946;-87
2021/12/16 11:33:22;;;;;;;16.40;8.80;;;;;;;13.24;68.14;103373.63;4966499;28;97200;-86
2021/12/16 11:36:17;;;;;;;13.80;8.57;;;;;;;13.23;68.17;103372.09;4946287;28;97181;-87
2021/12/16 11:38:51;;;;;;;17.53;9.23;;;;;;;13.21;68.25;103376.50;4920544;28;98826;-85
2021/12/16 11:41:22;;;;;;;19.60;10.03;;;;;;;13.22;68.06;103378.03;4946783;28;102673;-86
2021/12/16 11:43:56;;;;;;;13.60;8.97;;;;;;;13.22;68.10;103378.03;4958412;28;103787;-86
2021/12/16 11:46:32;;;;;;;12.90;8.30;;;;;;;13.19;68.04;103387.97;4947489;28;96478;-86
2021/12/16 11:49:04;;;;;;;13.37;9.13;;;;;;;13.18;68.15;103397.50;4944633;28;97120;-86
2021/12/16 11:51:35;;;;;;;12.63;7.60;;;;;;;13.24;68.33;103386.66;4945067;28;97737;-86
2021/12/16 11:54:12;;;;;;;15.20;8.80;;;;;;;13.27;67.89;103392.09;4961976;28;99455;-87
2021/12/16 11:56:45;;;;;;;11.57;7.10;;;;;;;13.30;68.26;103390.44;4945832;28;96861;-86
2021/12/16 11:59:11;;;;;;;14.60;7.77;;;;;;;13.31;68.21;103383.66;4942881;28;96939;-87
2021/12/16 12:01:40;;;;;;;12.40;8.30;;;;;;;13.31;68.14;103378.91;4961859;28;100030;-86
2021/12/16 12:04:10;;;;;;;15.57;8.70;;;;;;;13.32;67.87;103372.16;4944275;28;98387;-86
2021/12/16 12:06:37;;;;;;;23.83;8.67;;;;;;;13.35;68.10;103368.50;4945826;28;99977;-86
2021/12/16 12:09:07;;;;;;;9.63;6.77;;;;;;;13.37;67.93;103368.84;4945298;28;97399;-87
2021/12/16 12:11:36;;;;;;;17.40;7.17;;;;;;;13.39;67.97;103376.66;4946949;28;96946;-87
2021/12/16 12:14:09;;;;;;;11.87;7.70;;;;;;;13.28;67.77;103390.84;4959942;28;99555;-86
2021/12/16 12:16:42;;;;;;;8.47;6.63;;;;;;;13.29;67.88;103383.34;4944153;28;97355;-86
2021/12/16 12:19:24;;;;;;;12.53;6.50;;;;;;;13.31;67.83;103383.66;4944951;28;96789;-86
2021/12/16 12:21:56;;;;;;;8.43;6.30;;;;;;;13.30;67.87;103391.19;4943949;28;103175;-86
2021/12/16 12:24:25;;;;;;;12.07;7.17;;;;;;;13.26;67.86;103386.97;4941750;28;100762;-85
2021/12/16 12:26:50;;;;;;;9.50;6.40;;;;;;;13.18;67.92;103396.72;4945991;28;97057;-86
2021/12/16 12:29:33;;;;;;;10.50;6.80;;;;;;;13.19;67.96;103403.81;4943850;28;96670;-86
2021/12/16 12:32:26;;;;;;;8.93;6.50;;;;;;;13.16;67.76;103408.25;4941507;28;102331;-85
2021/12/16 12:34:57;;;;;;;14.60;7.37;;;;;;;13.11;67.99;103408.78;4942440;28;101844;-86
2021/12/16 12:37:25;;;;;;;9.90;6.67;;;;;;;13.06;68.09;103403.06;4941236;28;96762;-85
2021/12/16 12:39:55;;;;;;;9.23;6.90;;;;;;;13.06;68.22;103392.75;4961054;28;97412;-86
2021/12/16 12:42:21;;;;;;;11.77;7.80;;;;;;;13.12;68.21;103404.81;4941512;28;97549;-86
2021/12/16 12:44:47;;;;;;;12.47;7.43;;;;;;;13.12;67.86;103409.56;4940721;28;97071;-86
2021/12/16 12:47:18;;;;;;;13.00;8.10;;;;;;;13.07;67.89;103412.88;4943062;28;96796;-85
2021/12/16 12:49:44;;;;;;;11.30;6.97;;;;;;;13.08;67.91;103412.47;4960145;28;98499;-86
2021/12/16 12:52:17;;;;;;;12.80;7.57;;;;;;;13.05;68.05;103401.50;4963447;28;97916;-85
2021/12/16 12:54:56;;;;;;;10.87;6.93;;;;;;;12.91;67.88;103390.88;4941203;28;98936;-85
2021/12/16 12:57:28;;;;;;;11.60;7.60;;;;;;;12.89;68.31;103394.03;4944011;28;97538;-85
2021/12/16 12:59:55;;;;;;;12.30;8.07;;;;;;;12.97;68.35;103394.63;4943467;28;96741;-86
2021/12/16 13:02:26;;;;;;;14.97;8.90;;;;;;;13.01;68.12;103401.59;4961611;28;97671;-85
2021/12/16 13:05:10;;;;;;;11.93;7.73;;;;;;;12.96;68.10;103399.38;4942410;28;99677;-85
2021/12/16 13:07:40;;;;;;;13.40;7.47;;;;;;;12.99;68.16;103398.50;4937165;28;97183;-86
2021/12/16 13:10:14;;;;;;;13.17;7.70;;;;;;;13.02;68.06;103392.06;4942390;28;96800;-86
2021/12/16 13:13:01;;;;;;;18.80;7.97;;;;;;;13.04;68.11;103384.09;4942769;28;97610;-86
2021/12/16 13:15:55;;;;;;;15.00;9.30;;;;;;;12.93;67.79;103394.72;4937959;28;97100;-84
2021/12/16 13:26:35;;;;;;;10.20;7.30;;;;;;;13.04;68.04;103394.41;4946362;28;97438;-87
2021/12/16 13:29:31;;;;;;;13.03;8.47;;;;;;;13.07;67.85;103399.84;4947357;28;97127;-85
2021/12/16 13:32:14;;;;;;;10.77;7.07;;;;;;;13.05;68.03;103398.72;4944015;28;96997;-85
2021/12/16 13:35:00;;;;;;;11.57;7.37;;;;;;;13.05;67.66;103407.81;4956756;28;97344;-85
2021/12/16 13:37:35;;;;;;;14.57;9.00;;;;;;;12.99;67.64;103404.03;4946530;28;103578;-85
2021/12/16 13:40:22;;;;;;;14.20;8.40;;;;;;;12.95;67.86;103424.69;4945690;28;96874;-85
2021/12/16 13:43:12;;;;;;;13.03;6.97;;;;;;;12.93;67.87;103425.09;4943035;28;97181;-85
2021/12/16 13:46:00;;;;;;;7.93;6.53;;;;;;;12.90;67.79;103414.94;4946347;28;103677;-85
2021/12/16 14:03:42;;;;;;;13.37;6.27;;;;;;;12.85;68.08;103432.06;4948157;28;96880;-85
2021/12/16 14:06:26;;;;;;;11.60;6.30;;;;;;;12.87;67.83;103445.44;4943328;28;97810;-85
2021/12/16 14:08:53;;;;;;;9.93;6.90;;;;;;;12.92;68.14;103440.16;4958737;28;103288;-85
2021/12/16 14:23:06;;;;;;;9.37;5.40;;;;;;;12.98;67.78;103443.91;4944546;28;97037;-85
2021/12/16 14:25:53;;;;;;;10.23;5.77;;;;;;;13.01;67.77;103433.97;4946760;28;96822;-85
2021/12/16 14:31:18;;;;;;;8.00;6.77;;;;;;;13.02;67.57;103430.75;4942247;28;97002;-85